createdAt,value
2022-08-26T00:00:48.372Z,78.33
2022-08-26T00:03:16.093Z,77.88
2022-08-26T00:05:44.756Z,77.89
2022-08-26T00:08:15.263Z,78.16
2022-08-26T00:10:43.763Z,78.25
2022-08-26T00:13:11.137Z,78.54
2022-08-26T00:15:38.481Z,78.83
2022-08-26T00:18:05.593Z,78.42
2022-08-26T00:20:48.466Z,78.79
2022-08-26T00:23:15.086Z,78.13
2022-08-26T00:25:44.112Z,78.11
2022-08-26T00:28:11.064Z,77.65
2022-08-26T00:30:38.267Z,77.43
2022-08-26T00:33:05.009Z,76.96
2022-08-26T00:35:33.619Z,77.38
2022-08-26T00:38:01.746Z,77.13
2022-08-26T00:40:31.212Z,77.27
2022-08-26T00:42:59.973Z,77.55
2022-08-26T00:45:27.223Z,77.28
2022-08-26T00:47:57.963Z,78.21
2022-08-26T00:50:29.326Z,77.47
2022-08-26T00:52:58.163Z,78.60
2022-08-26T00:55:37.872Z,79.20
2022-08-26T00:58:08.240Z,79.22
2022-08-26T01:00:34.907Z,79.48
2022-08-26T01:03:03.283Z,78.96
2022-08-26T01:05:31.915Z,79.42
2022-08-26T01:07:58.494Z,79.73
2022-08-26T01:10:29.282Z,79.60
2022-08-26T01:13:00.187Z,80.12
2022-08-26T01:15:33.962Z,80.30
2022-08-26T01:18:00.906Z,80.76
2022-08-26T01:20:36.292Z,80.46
2022-08-26T01:23:06.893Z,81.02
2022-08-26T01:25:39.198Z,81.07
2022-08-26T01:28:10.622Z,80.92
2022-08-26T01:30:38.720Z,81.13
2022-08-26T01:33:10.299Z,81.61
2022-08-26T01:35:38.334Z,81.92
2022-08-26T01:38:06.442Z,81.92
2022-08-26T01:40:37.134Z,81.91
2022-08-26T01:43:07.104Z,81.86
2022-08-26T01:45:36.680Z,82.33
2022-08-26T01:48:08.338Z,82.23
2022-08-26T01:50:38.105Z,82.47
2022-08-26T01:53:09.284Z,82.36
2022-08-26T01:55:39.186Z,82.92
2022-08-26T01:58:14.971Z,82.55
2022-08-26T02:00:41.742Z,82.97
2022-08-26T02:03:11.315Z,82.55
2022-08-26T02:05:39.406Z,82.74
2022-08-26T02:08:08.039Z,82.86
2022-08-26T02:10:34.715Z,82.33
2022-08-26T02:13:02.724Z,82.48
2022-08-26T02:15:29.909Z,82.46
2022-08-26T02:17:57.460Z,82.21
2022-08-26T02:20:25.197Z,82.62
2022-08-26T02:22:53.356Z,82.70
2022-08-26T02:25:25.390Z,82.59
2022-08-26T02:27:52.473Z,82.45
2022-08-26T02:30:21.327Z,82.38
2022-08-26T02:32:49.584Z,82.01
2022-08-26T02:35:19.996Z,81.62
2022-08-26T02:37:47.450Z,82.41
2022-08-26T02:40:17.990Z,82.09
2022-08-26T02:42:46.384Z,82.27
2022-08-26T02:45:13.125Z,82.59
2022-08-26T02:47:43.366Z,82.80
2022-08-26T02:50:10.032Z,82.90
2022-08-26T02:52:36.988Z,82.24
2022-08-26T02:55:05.490Z,82.54
2022-08-26T02:57:32.118Z,82.40
2022-08-26T03:00:01.466Z,82.79
2022-08-26T03:02:28.553Z,82.33
2022-08-26T03:04:57.700Z,82.53
2022-08-26T03:07:28.315Z,82.78
2022-08-26T03:09:54.963Z,81.80
2022-08-26T03:12:21.522Z,82.00
2022-08-26T03:14:48.217Z,82.48
2022-08-26T03:17:16.203Z,81.93
2022-08-26T03:19:42.926Z,80.79
2022-08-26T03:22:09.530Z,82.01
2022-08-26T03:24:37.879Z,81.84
2022-08-26T03:27:07.412Z,81.75
2022-08-26T03:29:34.098Z,80.88
2022-08-26T03:32:00.663Z,80.73
2022-08-26T03:34:28.634Z,80.50
2022-08-26T03:36:55.278Z,80.17
2022-08-26T03:39:21.847Z,80.28
2022-08-26T03:41:48.446Z,80.04
2022-08-26T03:44:15.157Z,79.75
2022-08-26T03:46:41.863Z,80.05
2022-08-26T03:49:10.629Z,80.14
2022-08-26T03:51:39.042Z,79.74
2022-08-26T03:54:08.324Z,81.50
2022-08-26T03:56:35.942Z,81.69
2022-08-26T03:59:02.852Z,81.96
2022-08-26T04:01:30.166Z,82.18
2022-08-26T04:03:59.969Z,81.93
2022-08-26T04:06:29.241Z,81.39
2022-08-26T04:08:59.166Z,81.71
2022-08-26T04:11:27.890Z,82.12
2022-08-26T04:13:57.824Z,81.73
2022-08-26T04:16:27.177Z,82.14
2022-08-26T04:18:54.612Z,82.42
2022-08-26T04:21:21.170Z,82.39
2022-08-26T04:23:48.135Z,82.76
2022-08-26T04:26:16.802Z,82.85
2022-08-26T04:28:43.454Z,83.26
2022-08-26T04:31:11.337Z,83.30
2022-08-26T04:33:41.686Z,83.73
2022-08-26T04:36:09.114Z,83.85
2022-08-26T04:38:35.971Z,84.03
2022-08-26T04:41:03.115Z,83.65
2022-08-26T04:43:33.598Z,83.79
2022-08-26T04:46:03.097Z,83.83
2022-08-26T04:48:31.046Z,83.92
2022-08-26T04:50:57.899Z,83.91
2022-08-26T04:53:25.706Z,83.29
2022-08-26T04:55:52.551Z,83.99
2022-08-26T04:58:23.932Z,84.02
2022-08-26T05:00:55.121Z,83.45
2022-08-26T05:03:22.625Z,83.66
2022-08-26T05:05:51.121Z,83.13
2022-08-26T05:08:20.915Z,83.15
2022-08-26T05:10:51.864Z,83.40
2022-08-26T05:13:20.561Z,83.13
2022-08-26T05:15:48.227Z,83.31
2022-08-26T05:18:19.896Z,82.84
2022-08-26T05:20:48.856Z,83.13
2022-08-26T05:23:16.279Z,82.88
2022-08-26T05:25:45.489Z,83.63
2022-08-26T05:28:13.399Z,83.69
2022-08-26T05:30:40.481Z,83.20
2022-08-26T05:33:08.771Z,83.46
2022-08-26T05:35:38.015Z,82.69
2022-08-26T05:38:12.252Z,82.67
2022-08-26T05:40:45.793Z,82.74
2022-08-26T05:43:13.383Z,82.52
2022-08-26T05:45:46.273Z,82.04
2022-08-26T05:48:13.966Z,82.16
2022-08-26T05:50:43.367Z,81.23
2022-08-26T05:53:11.883Z,81.19
2022-08-26T05:55:42.588Z,80.76
2022-08-26T05:58:09.615Z,80.89
2022-08-26T06:00:36.231Z,80.33
2022-08-26T06:03:03.117Z,80.31
2022-08-26T06:05:29.820Z,79.83
2022-08-26T06:07:57.931Z,80.05
2022-08-26T06:10:32.921Z,80.05
2022-08-26T06:13:04.402Z,79.42
2022-08-26T06:15:42.024Z,79.02
2022-08-26T06:18:09.726Z,78.65
2022-08-26T06:20:36.930Z,78.66
2022-08-26T06:23:05.049Z,78.60
2022-08-26T06:25:31.647Z,78.89
2022-08-26T06:27:58.133Z,77.87
2022-08-26T06:30:24.836Z,77.76
2022-08-26T06:32:52.240Z,78.35
2022-08-26T06:35:19.907Z,77.68
2022-08-26T06:37:47.627Z,77.57
2022-08-26T06:40:15.615Z,77.05
2022-08-26T06:42:42.238Z,76.31
2022-08-26T06:45:10.299Z,76.45
2022-08-26T06:47:37.851Z,76.28
2022-08-26T06:50:05.026Z,75.90
2022-08-26T06:52:32.045Z,75.58
2022-08-26T06:54:58.656Z,75.52
2022-08-26T06:57:26.606Z,75.60
2022-08-26T06:59:53.296Z,74.73
2022-08-26T07:02:19.920Z,74.33
2022-08-26T07:04:47.772Z,74.72
2022-08-26T07:07:15.073Z,73.95
2022-08-26T07:09:41.635Z,73.87
2022-08-26T07:12:08.340Z,73.55
2022-08-26T07:14:37.232Z,73.52
2022-08-26T07:17:03.889Z,72.91
2022-08-26T07:19:31.775Z,72.33
2022-08-26T07:21:59.510Z,72.63
2022-08-26T07:24:28.476Z,72.33
2022-08-26T07:26:59.839Z,72.62
2022-08-26T07:29:26.410Z,71.78
2022-08-26T07:31:55.063Z,71.13
2022-08-26T07:34:23.663Z,71.08
2022-08-26T07:36:50.214Z,70.51
2022-08-26T07:39:17.007Z,71.21
2022-08-26T07:41:43.675Z,69.99
2022-08-26T07:44:10.281Z,70.12
2022-08-26T07:46:36.904Z,71.49
2022-08-26T07:49:05.287Z,70.05
2022-08-26T07:51:32.225Z,70.21
2022-08-26T07:53:59.570Z,69.60
2022-08-26T07:56:26.551Z,68.91
2022-08-26T07:58:53.702Z,69.58
2022-08-26T08:01:21.594Z,69.66
2022-08-26T08:03:50.542Z,69.02
2022-08-26T08:06:19.217Z,68.68
2022-08-26T08:08:46.147Z,69.14
2022-08-26T08:11:14.320Z,68.01
2022-08-26T08:13:41.277Z,67.42
2022-08-26T08:16:07.978Z,67.31
2022-08-26T08:18:39.651Z,67.75
2022-08-26T08:21:23.889Z,68.20
2022-08-26T08:23:53.320Z,68.06
2022-08-26T08:26:20.347Z,68.41
2022-08-26T08:28:47.778Z,67.16
2022-08-26T08:31:38.533Z,66.23
2022-08-26T08:34:06.635Z,66.47
2022-08-26T08:36:35.974Z,65.93
2022-08-26T08:39:07.208Z,67.16
2022-08-26T08:41:53.557Z,65.93
2022-08-26T08:46:53.874Z,64.75
2022-08-26T08:49:21.711Z,63.60
2022-08-26T08:51:54.359Z,63.58
2022-08-26T08:54:23.841Z,65.29
2022-08-26T08:56:52.999Z,63.25
2022-08-26T08:59:21.910Z,63.36
2022-08-26T09:02:00.182Z,62.41
2022-08-26T09:04:46.856Z,63.80
2022-08-26T09:07:17.876Z,63.31
2022-08-26T09:09:50.232Z,62.82
2022-08-26T09:12:29.486Z,63.82
2022-08-26T09:15:01.932Z,61.69
2022-08-26T09:17:39.930Z,61.92
2022-08-26T09:20:16.457Z,62.14
2022-08-26T09:22:44.296Z,60.78
2022-08-26T09:25:14.667Z,61.54
2022-08-26T09:27:44.154Z,61.62
2022-08-26T09:30:14.841Z,61.20
2022-08-26T09:32:42.404Z,61.06
2022-08-26T09:35:23.167Z,61.21
2022-08-26T09:40:29.255Z,61.52
2022-08-26T09:43:14.751Z,60.05
2022-08-26T09:45:50.266Z,60.26
2022-08-26T09:48:27.148Z,59.97
2022-08-26T09:50:56.721Z,58.77
2022-08-26T09:53:28.517Z,59.09
2022-08-26T09:58:50.587Z,60.10
2022-08-26T10:01:30.185Z,60.03
2022-08-26T10:04:06.347Z,58.92
2022-08-26T10:06:38.180Z,59.22
2022-08-26T10:09:09.872Z,58.72
2022-08-26T10:11:42.914Z,59.23
2022-08-26T10:14:18.791Z,57.04
2022-08-26T10:16:50.609Z,58.14
2022-08-26T10:19:23.287Z,57.87
2022-08-26T10:22:00.180Z,56.55
2022-08-26T10:24:31.863Z,56.59
2022-08-26T10:27:05.847Z,54.57
2022-08-26T10:29:39.739Z,55.33
2022-08-26T10:32:13.759Z,53.34
2022-08-26T10:34:40.652Z,53.27
2022-08-26T10:37:16.098Z,54.36
2022-08-26T10:39:53.088Z,51.67
2022-08-26T10:42:30.306Z,50.55
2022-08-26T10:45:05.768Z,51.59
2022-08-26T10:47:41.472Z,49.68
2022-08-26T10:50:08.898Z,49.55
2022-08-26T10:52:52.406Z,50.59
2022-08-26T10:55:22.775Z,51.66
2022-08-26T10:57:57.456Z,51.73
2022-08-26T11:00:31.593Z,52.28
2022-08-26T11:03:05.542Z,52.96
2022-08-26T11:05:36.115Z,53.38
2022-08-26T11:08:28.485Z,54.46
2022-08-26T11:10:59.007Z,55.28
2022-08-26T11:13:59.432Z,54.33
2022-08-26T11:16:42.878Z,55.41
2022-08-26T11:19:12.423Z,56.73
2022-08-26T11:22:04.294Z,59.08
2022-08-26T11:24:45.785Z,60.94
2022-08-26T11:28:03.169Z,62.47
2022-08-26T11:30:57.684Z,64.22
2022-08-26T11:33:56.969Z,65.69
2022-08-26T11:36:58.320Z,66.54
2022-08-26T11:39:28.658Z,67.38
2022-08-26T11:41:59.359Z,67.40
2022-08-26T11:44:29.369Z,67.89
2022-08-26T11:46:58.817Z,69.24
2022-08-26T11:49:28.235Z,70.17
2022-08-26T11:52:08.841Z,70.76
2022-08-26T11:54:35.924Z,70.99
2022-08-26T11:57:09.248Z,71.40
2022-08-26T11:59:40.326Z,71.79
2022-08-26T12:02:15.571Z,71.62
2022-08-26T12:04:47.384Z,71.98
2022-08-26T12:07:14.335Z,72.03
2022-08-26T12:09:52.949Z,72.19
2022-08-26T12:12:25.271Z,72.68
2022-08-26T12:15:11.253Z,72.02
2022-08-26T12:17:38.722Z,72.08
2022-08-26T12:20:18.176Z,72.59
2022-08-26T12:22:48.269Z,72.54
2022-08-26T12:25:23.277Z,73.37
2022-08-26T12:27:53.699Z,72.88
2022-08-26T12:30:24.011Z,74.03
2022-08-26T12:32:57.902Z,74.49
2022-08-26T12:35:27.048Z,75.79
2022-08-26T12:37:55.120Z,76.29
2022-08-26T12:40:27.859Z,77.10
2022-08-26T12:42:55.135Z,77.82
2022-08-26T12:45:27.389Z,78.79
2022-08-26T12:47:55.898Z,78.51
2022-08-26T12:50:26.717Z,78.40
2022-08-26T12:52:59.577Z,77.40
2022-08-26T12:55:36.302Z,77.74
2022-08-26T12:58:12.140Z,76.71
2022-08-26T13:00:41.058Z,75.60
2022-08-26T13:03:37.273Z,76.43
2022-08-26T13:06:15.681Z,76.62
2022-08-26T13:08:52.654Z,76.90
2022-08-26T13:11:27.412Z,76.87
2022-08-26T13:13:57.866Z,76.16
2022-08-26T13:16:25.222Z,78.06
2022-08-26T13:18:55.406Z,78.40
2022-08-26T13:21:24.904Z,79.05
2022-08-26T13:23:53.943Z,77.77
2022-08-26T13:26:21.269Z,77.01
2022-08-26T13:29:01.743Z,77.43
2022-08-26T13:31:32.409Z,77.98
2022-08-26T13:34:02.661Z,78.24
2022-08-26T13:36:30.032Z,79.12
2022-08-26T13:38:58.293Z,78.71
2022-08-26T13:41:29.460Z,79.31
2022-08-26T13:43:56.744Z,80.08
2022-08-26T13:46:24.997Z,79.85
2022-08-26T13:48:51.719Z,79.34
2022-08-26T13:51:18.602Z,79.37
2022-08-26T13:53:45.588Z,80.21
2022-08-26T13:56:13.779Z,79.37
2022-08-26T13:58:40.721Z,80.28
2022-08-26T14:01:08.183Z,79.99
2022-08-26T14:03:35.229Z,80.47
2022-08-26T14:06:02.144Z,80.26
2022-08-26T14:08:30.034Z,80.34
2022-08-26T14:10:56.706Z,81.04
2022-08-26T14:13:24.885Z,81.25
2022-08-26T14:15:52.838Z,80.73
2022-08-26T14:18:24.638Z,81.18
2022-08-26T14:20:53.175Z,80.97
2022-08-26T14:23:19.926Z,81.54
2022-08-26T14:25:46.646Z,81.77
2022-08-26T14:28:13.374Z,81.61
2022-08-26T14:30:43.645Z,81.56
2022-08-26T14:33:12.175Z,81.61
2022-08-26T14:35:39.598Z,81.35
2022-08-26T14:45:16.855Z,81.78
2022-08-26T14:47:45.678Z,82.15
2022-08-26T14:50:12.790Z,82.23
2022-08-26T14:52:40.042Z,82.15
2022-08-26T14:55:07.456Z,82.58
2022-08-26T14:57:34.150Z,82.51
2022-08-26T15:00:02.482Z,83.06
2022-08-26T15:02:33.507Z,83.37
2022-08-26T15:05:02.706Z,83.66
2022-08-26T15:07:29.611Z,83.26
2022-08-26T15:09:56.414Z,83.06
2022-08-26T15:12:23.215Z,83.45
2022-08-26T15:14:49.931Z,83.19
2022-08-26T15:17:16.740Z,82.18
2022-08-26T15:19:43.562Z,82.00
2022-08-26T15:22:11.726Z,82.38
2022-08-26T15:24:38.414Z,82.40
2022-08-26T15:27:05.129Z,82.55
2022-08-26T15:29:31.840Z,83.39
2022-08-26T15:32:03.522Z,83.16
2022-08-26T15:34:30.224Z,83.43
2022-08-26T15:36:56.912Z,84.04
2022-08-26T15:39:24.965Z,83.90
2022-08-26T15:41:51.657Z,84.46
2022-08-26T15:44:18.304Z,84.56
2022-08-26T15:46:47.047Z,84.64
2022-08-26T15:49:17.660Z,84.72
2022-08-26T15:51:46.650Z,84.58
2022-08-26T15:54:14.361Z,84.11
2022-08-26T15:56:43.426Z,84.32
2022-08-26T15:59:11.153Z,84.19
2022-08-26T16:01:38.041Z,83.80
2022-08-26T16:04:05.824Z,83.13
2022-08-26T16:06:34.817Z,83.05
2022-08-26T16:09:01.678Z,83.58
2022-08-26T16:11:28.905Z,82.64
2022-08-26T16:13:57.590Z,82.59
2022-08-26T16:16:24.615Z,83.28
2022-08-26T16:18:51.405Z,83.16
2022-08-26T16:21:21.862Z,82.70
2022-08-26T16:23:49.211Z,83.06
2022-08-26T16:26:22.585Z,82.79
2022-08-26T16:28:49.226Z,82.97
2022-08-26T16:31:18.184Z,82.72
2022-08-26T16:33:44.889Z,82.99
2022-08-26T16:36:12.180Z,83.02
2022-08-26T16:38:41.317Z,83.59
2022-08-26T16:41:08.933Z,82.86
2022-08-26T16:43:36.006Z,83.28
2022-08-26T16:46:05.965Z,83.25
2022-08-26T16:48:34.386Z,82.94
2022-08-26T16:51:01.108Z,83.47
2022-08-26T16:53:27.961Z,83.15
2022-08-26T16:55:54.728Z,83.41
2022-08-26T16:58:22.341Z,82.98
2022-08-26T17:00:49.894Z,82.93
2022-08-26T17:03:18.086Z,83.50
2022-08-26T17:05:46.159Z,83.23
2022-08-26T17:08:21.819Z,82.56
2022-08-26T17:10:55.742Z,82.66
2022-08-26T17:13:34.906Z,82.96
2022-08-26T17:16:04.347Z,82.85
2022-08-26T17:18:31.387Z,82.84
2022-08-26T17:21:02.669Z,83.05
2022-08-26T17:23:29.389Z,83.45
2022-08-26T17:25:56.292Z,83.42
2022-08-26T17:28:23.073Z,83.28
2022-08-26T17:30:49.705Z,82.89
2022-08-26T17:33:21.959Z,82.73
2022-08-26T17:35:51.286Z,83.29
2022-08-26T17:38:19.728Z,82.97
2022-08-26T17:40:46.360Z,82.69
2022-08-26T17:43:13.008Z,82.96
2022-08-26T17:45:40.845Z,83.03
2022-08-26T17:48:08.021Z,82.96
2022-08-26T17:50:35.186Z,82.81
2022-08-26T17:53:01.898Z,82.40
2022-08-26T17:55:29.924Z,82.49
2022-08-26T17:57:57.218Z,82.71
2022-08-26T18:00:25.669Z,83.33
2022-08-26T18:02:52.462Z,83.36
2022-08-26T18:05:19.284Z,83.09
2022-08-26T18:07:47.175Z,83.23
2022-08-26T18:10:16.209Z,83.58
2022-08-26T18:12:44.350Z,83.38
2022-08-26T18:15:13.608Z,83.01
2022-08-26T18:17:40.587Z,83.08
2022-08-26T18:20:09.652Z,83.29
2022-08-26T18:22:36.500Z,83.65
2022-08-26T18:25:03.650Z,83.25
2022-08-26T18:27:30.307Z,83.73
2022-08-26T18:29:58.344Z,83.78
2022-08-26T18:32:24.918Z,83.84
2022-08-26T18:34:51.568Z,83.30
2022-08-26T18:37:18.568Z,83.69
2022-08-26T18:39:45.267Z,83.25
2022-08-26T18:42:11.925Z,83.24
2022-08-26T18:44:38.762Z,83.48
2022-08-26T18:47:07.010Z,83.29
2022-08-26T18:49:34.457Z,83.71
2022-08-26T18:52:01.246Z,83.56
2022-08-26T18:54:27.946Z,83.48
2022-08-26T18:56:54.640Z,83.77
2022-08-26T18:59:29.567Z,83.86
2022-08-26T19:01:57.958Z,83.76
2022-08-26T19:04:26.624Z,83.93
2022-08-26T19:06:53.587Z,83.90
2022-08-26T19:09:20.869Z,83.90
2022-08-26T19:11:49.661Z,84.25
2022-08-26T19:14:18.288Z,84.59
2022-08-26T19:16:47.155Z,84.33
2022-08-26T19:19:14.617Z,84.25
2022-08-26T19:21:43.380Z,84.81
2022-08-26T19:24:13.485Z,84.44
2022-08-26T19:26:40.176Z,84.52
2022-08-26T19:29:07.021Z,84.32
2022-08-26T19:31:33.899Z,84.00
2022-08-26T19:34:00.668Z,84.39
2022-08-26T19:36:28.235Z,84.49
2022-08-26T19:38:56.341Z,84.34
2022-08-26T19:41:36.680Z,84.65
2022-08-26T19:44:07.154Z,84.10
2022-08-26T19:46:33.913Z,84.15
2022-08-26T19:49:00.625Z,84.64
2022-08-26T19:51:32.004Z,84.62
2022-08-26T19:54:01.049Z,84.19
2022-08-26T19:56:28.357Z,84.00
2022-08-26T19:58:56.017Z,84.06
2022-08-26T20:01:23.208Z,84.68
2022-08-26T20:03:50.133Z,84.17
2022-08-26T20:06:17.141Z,84.27
2022-08-26T20:08:44.283Z,84.44
2022-08-26T20:11:14.397Z,84.35
2022-08-26T20:13:41.733Z,84.00
2022-08-26T20:16:08.460Z,83.91
2022-08-26T20:18:35.130Z,83.66
2022-08-26T20:21:01.918Z,84.12
2022-08-26T20:23:28.587Z,84.06
2022-08-26T20:25:55.569Z,83.93
2022-08-26T20:28:23.577Z,83.89
2022-08-26T20:30:50.450Z,83.71
2022-08-26T20:33:17.071Z,83.55
2022-08-26T20:35:43.826Z,84.05
2022-08-26T20:38:10.752Z,84.00
2022-08-26T20:40:37.648Z,84.23
2022-08-26T20:43:04.423Z,83.67
2022-08-26T20:45:32.587Z,83.57
2022-08-26T20:47:59.296Z,83.90
2022-08-26T20:50:26.335Z,83.46
2022-08-26T20:52:53.084Z,84.23
2022-08-26T20:55:20.368Z,83.63
2022-08-26T20:57:48.150Z,84.16
2022-08-26T21:00:15.393Z,83.90
2022-08-26T21:02:45.686Z,83.97
2022-08-26T21:05:12.452Z,84.27
2022-08-26T21:07:39.157Z,83.73
2022-08-26T21:10:06.307Z,84.16
2022-08-26T21:12:32.934Z,83.89
2022-08-26T21:14:59.611Z,84.50
2022-08-26T21:17:26.532Z,83.95
2022-08-26T21:19:54.595Z,83.85
2022-08-26T21:22:21.587Z,83.98
2022-08-26T21:24:48.237Z,83.90
2022-08-26T21:27:17.682Z,84.12
2022-08-26T21:29:53.262Z,83.90
2022-08-26T21:32:20.168Z,84.23
2022-08-26T21:34:46.927Z,84.09
2022-08-26T21:37:16.584Z,84.21
2022-08-26T21:39:43.807Z,84.28
2022-08-26T21:42:10.671Z,84.14
2022-08-26T21:44:37.471Z,83.89
2022-08-26T21:47:04.512Z,84.48
2022-08-26T21:49:31.414Z,84.58
2022-08-26T21:51:58.442Z,84.58
2022-08-26T21:54:26.569Z,83.96
2022-08-26T21:56:53.298Z,84.27
2022-08-26T21:59:20.018Z,84.30
2022-08-26T22:01:47.409Z,84.15
2022-08-26T22:04:14.302Z,84.01
2022-08-26T22:06:43.821Z,84.46
2022-08-26T22:09:12.214Z,84.07
2022-08-26T22:11:41.075Z,83.94
2022-08-26T22:14:07.830Z,84.22
2022-08-26T22:16:34.689Z,84.38
2022-08-26T22:19:01.589Z,84.83
2022-08-26T22:21:28.446Z,85.12
2022-08-26T22:23:57.912Z,84.68
2022-08-26T22:26:28.538Z,84.94
2022-08-26T22:28:59.395Z,84.67
2022-08-26T22:31:28.010Z,84.93
2022-08-26T22:34:07.105Z,84.45
2022-08-26T22:36:33.884Z,84.26
2022-08-26T22:39:01.503Z,84.01
2022-08-26T22:41:28.305Z,84.34
2022-08-26T22:43:56.513Z,84.12
2022-08-26T22:46:25.528Z,84.95
2022-08-26T22:48:54.142Z,84.84
2022-08-26T22:51:21.570Z,84.55
2022-08-26T22:53:48.362Z,84.60
2022-08-26T22:56:15.507Z,84.74
2022-08-26T22:58:42.216Z,85.55
2022-08-26T23:01:10.325Z,84.96
2022-08-26T23:03:37.323Z,84.66
2022-08-26T23:06:05.426Z,84.89
2022-08-26T23:08:32.191Z,85.46
2022-08-26T23:10:58.883Z,85.33
2022-08-26T23:13:25.780Z,85.46
2022-08-26T23:16:01.115Z,85.34
2022-08-26T23:18:29.298Z,85.57
2022-08-26T23:20:57.082Z,85.61
2022-08-26T23:23:24.891Z,85.52
2022-08-26T23:25:51.579Z,86.06
2022-08-26T23:28:18.277Z,85.88
2022-08-26T23:30:44.893Z,86.18
2022-08-26T23:33:11.479Z,85.83
2022-08-26T23:35:39.554Z,86.38
2022-08-26T23:38:08.346Z,85.76
2022-08-26T23:40:37.750Z,86.11
2022-08-26T23:43:06.615Z,85.86
2022-08-26T23:45:34.381Z,86.21
2022-08-26T23:48:01.126Z,85.95
2022-08-26T23:50:29.923Z,86.56
2022-08-26T23:52:58.260Z,86.13
2022-08-26T23:55:25.001Z,86.19
2022-08-26T23:57:51.767Z,86.12
